createdAt,value
2019-01-04T00:00:37.894Z,102688.89
2019-01-04T00:03:07.326Z,102692.80
2019-01-04T00:05:36.993Z,102692.32
2019-01-04T00:08:09.567Z,102694.89
2019-01-04T00:10:38.894Z,102696.62
2019-01-04T00:13:08.609Z,102696.49
2019-01-04T00:15:37.907Z,102699.95
2019-01-04T00:18:07.365Z,102701.61
2019-01-04T00:20:37.211Z,102690.31
2019-01-04T00:23:06.641Z,102705.89
2019-01-04T00:25:36.289Z,102708.97
2019-01-04T00:28:07.983Z,102700.23
2019-01-04T00:30:37.317Z,102708.44
2019-01-04T00:33:07.035Z,102713.16
2019-01-04T00:35:36.325Z,102713.16
2019-01-04T00:38:08.450Z,102715.39
2019-01-04T00:40:37.846Z,102709.72
2019-01-04T00:43:07.188Z,102697.62
2019-01-04T00:45:36.763Z,102705.61
2019-01-04T00:48:09.181Z,102705.61
2019-01-04T00:50:39.389Z,102698.31
2019-01-04T00:53:08.982Z,102695.70
2019-01-04T00:56:06.566Z,102696.17
2019-01-04T00:59:02.710Z,102680.13
2019-01-04T01:01:56.746Z,102696.25
2019-01-04T01:05:18.385Z,102692.68
2019-01-04T01:08:24.841Z,102692.68
2019-01-04T01:11:30.083Z,102701.80
2019-01-04T01:14:53.370Z,102689.63
2019-01-04T01:17:59.398Z,102681.42
2019-01-04T01:21:07.586Z,102686.27
2019-01-04T01:24:19.934Z,102693.11
2019-01-04T01:27:24.419Z,102690.45
2019-01-04T01:30:33.158Z,102692.69
2019-01-04T01:33:08.229Z,102690.36
2019-01-04T01:36:15.846Z,102690.36
2019-01-04T01:39:38.120Z,102698.96
2019-01-04T01:42:42.444Z,102691.56
2019-01-04T01:46:13.863Z,102700.65
2019-01-04T01:49:21.078Z,102697.17
2019-01-04T01:52:09.524Z,102679.83
2019-01-04T01:54:38.842Z,102679.83
2019-01-04T01:57:08.140Z,102689.80
2019-01-04T01:59:37.568Z,102681.98
2019-01-04T02:02:07.353Z,102695.45
2019-01-04T02:04:36.633Z,102685.47
2019-01-04T02:07:05.912Z,102701.48
2019-01-04T02:09:35.181Z,102701.48
2019-01-04T02:12:07.458Z,102711.42
2019-01-04T02:14:37.064Z,102711.42
2019-01-04T02:17:06.360Z,102710.53
2019-01-04T02:19:35.909Z,102710.53
2019-01-04T02:22:05.992Z,102718.69
2019-01-04T02:24:35.298Z,102718.69
2019-01-04T02:27:04.899Z,102708.70
2019-01-04T02:29:34.256Z,102708.70
2019-01-04T02:32:06.600Z,102708.77
2019-01-04T02:34:36.317Z,102716.49
2019-01-04T02:37:06.337Z,102716.49
2019-01-04T02:39:36.249Z,102718.64
2019-01-04T02:42:06.334Z,102722.48
2019-01-04T02:44:35.643Z,102722.48
2019-01-04T02:47:05.503Z,102715.95
2019-01-04T02:49:34.801Z,102711.09
2019-01-04T02:52:05.107Z,102719.13
2019-01-04T02:54:35.284Z,102725.61
2019-01-04T02:57:04.596Z,102720.41
2019-01-04T02:59:33.983Z,102722.11
2019-01-04T03:02:06.313Z,102722.11
2019-01-04T03:04:35.593Z,102710.93
2019-01-04T03:07:04.914Z,102692.70
2019-01-04T03:09:34.172Z,102674.41
2019-01-04T03:12:05.507Z,102674.41
2019-01-04T03:14:34.820Z,102693.47
2019-01-04T03:17:04.412Z,102696.07
2019-01-04T03:19:33.696Z,102698.65
2019-01-04T03:22:03.775Z,102688.05
2019-01-04T03:24:33.134Z,102691.11
2019-01-04T03:27:02.818Z,102693.63
2019-01-04T03:29:32.295Z,102696.94
2019-01-04T03:32:03.737Z,102703.11
2019-01-04T03:34:32.845Z,102700.83
2019-01-04T03:37:02.218Z,102686.84
2019-01-04T03:39:31.503Z,102686.84
2019-01-04T03:42:02.751Z,102692.44
2019-01-04T03:44:32.155Z,102689.77
2019-01-04T03:47:01.439Z,102689.77
2019-01-04T03:49:30.986Z,102677.09
2019-01-04T03:52:00.449Z,102692.41
2019-01-04T03:54:29.758Z,102697.20
2019-01-04T03:57:00.875Z,102697.63
2019-01-04T03:59:30.275Z,102697.99
2019-01-04T04:01:59.758Z,102682.66
2019-01-04T04:04:29.081Z,102682.59
2019-01-04T04:06:58.833Z,102682.44
2019-01-04T04:09:28.124Z,102687.06
2019-01-04T04:11:57.455Z,102694.05
2019-01-04T04:14:26.854Z,102681.95
2019-01-04T04:16:56.223Z,102681.95
2019-01-04T04:19:25.505Z,102659.12
2019-01-04T04:21:55.347Z,102656.26
2019-01-04T04:24:24.706Z,102666.00
2019-01-04T04:26:54.487Z,102666.00
2019-01-04T04:29:24.466Z,102650.55
2019-01-04T04:31:53.818Z,102664.52
2019-01-04T04:34:23.156Z,102669.66
2019-01-04T04:36:52.624Z,102669.66
2019-01-04T04:39:22.297Z,102679.27
2019-01-04T04:41:51.676Z,102672.80
2019-01-04T04:44:21.044Z,102662.54
2019-01-04T04:46:50.623Z,102655.18
2019-01-04T04:49:20.079Z,102655.77
2019-01-04T04:51:49.409Z,102649.17
2019-01-04T04:54:19.021Z,102650.53
2019-01-04T04:56:48.309Z,102650.53
2019-01-04T04:59:18.575Z,102652.92
2019-01-04T05:01:48.149Z,102641.76
2019-01-04T05:04:17.468Z,102643.19
2019-01-04T05:06:47.000Z,102648.55
2019-01-04T05:09:16.596Z,102648.55
2019-01-04T05:11:45.899Z,102654.30
2019-01-04T05:14:17.621Z,102658.89
2019-01-04T05:16:47.154Z,102661.16
2019-01-04T05:19:16.834Z,102661.16
2019-01-04T05:21:47.203Z,102667.24
2019-01-04T05:24:16.663Z,102669.75
2019-01-04T05:26:46.965Z,102669.75
2019-01-04T05:29:16.674Z,102680.92
2019-01-04T05:31:46.389Z,102675.34
2019-01-04T05:34:16.036Z,102669.31
2019-01-04T05:36:46.230Z,102669.31
2019-01-04T05:39:15.518Z,102677.63
2019-01-04T05:41:44.923Z,102676.28
2019-01-04T05:44:14.791Z,102676.28
2019-01-04T05:46:44.151Z,102677.17
2019-01-04T05:49:13.652Z,102677.17
2019-01-04T05:51:43.478Z,102679.77
2019-01-04T05:54:12.832Z,102672.75
2019-01-04T05:56:42.128Z,102670.49
2019-01-04T05:59:11.497Z,102670.49
2019-01-04T06:01:41.153Z,102664.13
2019-01-04T06:04:10.575Z,102650.41
2019-01-04T06:06:39.904Z,102650.41
2019-01-04T06:09:09.700Z,102649.93
2019-01-04T06:11:39.044Z,102644.83
2019-01-04T06:14:08.795Z,102640.05
2019-01-04T06:16:38.213Z,102648.91
2019-01-04T06:19:07.573Z,102642.34
2019-01-04T06:21:36.976Z,102642.34
2019-01-04T06:24:06.512Z,102648.01
2019-01-04T06:26:36.151Z,102657.64
2019-01-04T06:29:05.938Z,102657.15
2019-01-04T06:31:35.284Z,102657.15
2019-01-04T06:34:07.370Z,102668.84
2019-01-04T06:36:36.722Z,102666.97
2019-01-04T06:39:08.271Z,102660.58
2019-01-04T06:41:37.925Z,102661.94
2019-01-04T06:44:07.356Z,102652.88
2019-01-04T06:46:57.232Z,102661.15
2019-01-04T06:49:26.949Z,102659.06
2019-01-04T06:51:56.301Z,102659.11
2019-01-04T06:55:01.590Z,102656.85
2019-01-04T06:57:31.025Z,102656.85
2019-01-04T07:00:00.390Z,102663.89
2019-01-04T07:02:30.279Z,102663.89
2019-01-04T07:04:59.614Z,102683.47
2019-01-04T07:07:28.991Z,102689.16
2019-01-04T07:09:58.624Z,102689.16
2019-01-04T07:12:27.978Z,102690.92
2019-01-04T07:14:57.279Z,102697.48
2019-01-04T07:17:26.912Z,102686.11
2019-01-04T07:19:56.330Z,102686.11
2019-01-04T07:22:25.658Z,102701.40
2019-01-04T07:24:55.337Z,102700.15
2019-01-04T07:27:24.617Z,102702.38
2019-01-04T07:29:53.979Z,102701.06
2019-01-04T07:32:23.619Z,102708.87
2019-01-04T07:34:53.194Z,102718.42
2019-01-04T07:37:22.589Z,102718.42
2019-01-04T07:39:52.370Z,102723.19
2019-01-04T07:42:21.639Z,102724.99
2019-01-04T07:44:50.971Z,102730.20
2019-01-04T07:47:21.691Z,102720.77
2019-01-04T07:49:51.043Z,102724.25
2019-01-04T07:52:20.362Z,102724.25
2019-01-04T07:54:50.008Z,102725.63
2019-01-04T07:57:19.330Z,102728.22
2019-01-04T07:59:48.639Z,102739.03
2019-01-04T08:02:40.734Z,102733.73
2019-01-04T08:05:12.473Z,102736.75
2019-01-04T08:07:42.027Z,102739.04
2019-01-04T08:10:11.503Z,102727.01
2019-01-04T08:12:40.840Z,102731.41
2019-01-04T08:15:10.619Z,102730.23
2019-01-04T08:17:39.983Z,102727.72
2019-01-04T08:20:09.935Z,102731.22
2019-01-04T08:22:39.529Z,102721.16
2019-01-04T08:25:09.662Z,102722.17
2019-01-04T08:27:38.964Z,102728.63
2019-01-04T08:30:13.722Z,102730.45
2019-01-04T08:32:43.021Z,102739.16
2019-01-04T08:35:12.324Z,102742.30
2019-01-04T08:37:41.964Z,102733.48
2019-01-04T08:40:12.142Z,102728.39
2019-01-04T08:42:41.532Z,102730.47
2019-01-04T08:45:15.290Z,102723.97
2019-01-04T08:47:44.626Z,102734.37
2019-01-04T08:50:15.003Z,102726.22
2019-01-04T08:52:44.852Z,102734.97
2019-01-04T08:55:17.820Z,102725.45
2019-01-04T08:57:47.134Z,102733.61
2019-01-04T09:00:17.148Z,102728.35
2019-01-04T09:02:46.470Z,102719.05
2019-01-04T09:05:15.888Z,102717.81
2019-01-04T09:07:46.491Z,102726.48
2019-01-04T09:10:15.804Z,102729.83
2019-01-04T09:12:45.140Z,102727.70
2019-01-04T09:15:14.796Z,102731.68
2019-01-04T09:17:44.080Z,102730.87
2019-01-04T09:20:13.504Z,102726.09
2019-01-04T09:22:43.724Z,102731.41
2019-01-04T09:25:13.035Z,102732.71
2019-01-04T09:27:42.334Z,102726.98
2019-01-04T09:30:14.154Z,102731.67
2019-01-04T09:32:43.499Z,102732.16
2019-01-04T09:35:12.818Z,102736.00
2019-01-04T09:37:42.498Z,102738.72
2019-01-04T09:40:12.612Z,102735.59
2019-01-04T09:42:47.866Z,102727.31
2019-01-04T09:45:17.468Z,102731.20
2019-01-04T09:47:46.795Z,102722.53
2019-01-04T09:50:16.373Z,102717.73
2019-01-04T09:52:45.706Z,102707.36
2019-01-04T09:55:15.205Z,102719.65
2019-01-04T09:57:44.828Z,102711.13
2019-01-04T10:00:14.602Z,102697.36
2019-01-04T10:02:43.912Z,102697.36
2019-01-04T10:05:13.613Z,102687.50
2019-01-04T10:07:42.924Z,102689.33
2019-01-04T10:10:13.314Z,102686.17
2019-01-04T10:12:43.965Z,102672.89
2019-01-04T10:15:15.782Z,102664.48
2019-01-04T10:18:09.647Z,102660.36
2019-01-04T10:20:39.268Z,102662.14
2019-01-04T10:23:08.950Z,102654.03
2019-01-04T10:25:38.265Z,102654.95
2019-01-04T10:28:07.601Z,102643.28
2019-01-04T10:30:37.283Z,102636.77
2019-01-04T10:33:13.598Z,102628.09
2019-01-04T10:35:45.482Z,102634.19
2019-01-04T10:38:15.087Z,102627.61
2019-01-04T10:40:44.434Z,102622.72
2019-01-04T10:43:14.066Z,102612.61
2019-01-04T10:45:45.185Z,102610.44
2019-01-04T10:48:14.497Z,102609.16
2019-01-04T10:50:44.610Z,102601.29
2019-01-04T10:53:13.972Z,102605.73
2019-01-04T10:55:43.240Z,102599.12
2019-01-04T10:58:12.870Z,102596.57
2019-01-04T11:00:42.213Z,102590.86
2019-01-04T11:03:11.520Z,102589.48
2019-01-04T11:05:41.228Z,102593.00
2019-01-04T11:08:10.567Z,102604.02
2019-01-04T11:10:39.864Z,102598.33
2019-01-04T11:13:10.409Z,102603.98
2019-01-04T11:15:39.942Z,102598.19
2019-01-04T11:18:09.969Z,102589.86
2019-01-04T11:20:44.742Z,102585.70
2019-01-04T11:24:06.208Z,102581.56
2019-01-04T11:27:09.265Z,102581.27
2019-01-04T11:30:14.382Z,102571.00
2019-01-04T11:33:13.861Z,102568.45
2019-01-04T11:36:30.237Z,102557.05
2019-01-04T11:39:36.515Z,102553.05
2019-01-04T11:42:42.733Z,102548.02
2019-01-04T11:46:05.446Z,102545.59
2019-01-04T11:49:08.153Z,102541.39
2019-01-04T11:51:50.790Z,102543.44
2019-01-04T11:54:23.852Z,102531.30
2019-01-04T11:56:54.575Z,102522.27
2019-01-04T11:59:23.924Z,102513.64
2019-01-04T12:01:53.266Z,102512.13
2019-01-04T12:04:22.918Z,102505.69
2019-01-04T12:06:55.399Z,102505.48
2019-01-04T12:09:25.111Z,102504.61
2019-01-04T12:11:54.751Z,102507.70
2019-01-04T12:14:24.215Z,102514.27
2019-01-04T12:16:53.520Z,102510.31
2019-01-04T12:19:23.164Z,102509.06
2019-01-04T12:21:52.465Z,102500.00
2019-01-04T12:24:21.759Z,102495.64
2019-01-04T12:26:51.582Z,102486.49
2019-01-04T12:29:20.884Z,102474.25
2019-01-04T12:31:50.284Z,102471.28
2019-01-04T12:34:19.887Z,102460.90
2019-01-04T12:36:49.157Z,102470.55
2019-01-04T12:39:18.493Z,102475.34
2019-01-04T12:41:48.197Z,102477.95
2019-01-04T12:44:17.483Z,102488.46
2019-01-04T12:46:46.816Z,102492.79
2019-01-04T12:49:16.475Z,102490.59
2019-01-04T12:51:45.790Z,102486.20
2019-01-04T12:54:15.138Z,102483.59
2019-01-04T12:56:44.768Z,102494.52
2019-01-04T12:59:14.102Z,102491.03
2019-01-04T13:01:43.567Z,102492.80
2019-01-04T13:04:12.918Z,102493.67
2019-01-04T13:06:42.250Z,102495.82
2019-01-04T13:09:11.716Z,102481.95
2019-01-04T13:11:42.875Z,102472.36
2019-01-04T13:14:13.645Z,102475.00
2019-01-04T13:16:43.015Z,102474.55
2019-01-04T13:19:12.426Z,102476.77
2019-01-04T13:21:42.111Z,102484.58
2019-01-04T13:24:11.441Z,102480.20
2019-01-04T13:26:40.775Z,102480.22
2019-01-04T13:29:11.410Z,102472.83
2019-01-04T13:31:40.746Z,102470.25
2019-01-04T13:34:10.125Z,102462.84
2019-01-04T13:36:39.858Z,102462.86
2019-01-04T13:39:12.108Z,102462.40
2019-01-04T13:41:46.549Z,102443.27
2019-01-04T13:44:16.354Z,102447.61
2019-01-04T13:46:45.722Z,102445.91
2019-01-04T13:49:15.413Z,102440.23
2019-01-04T13:51:44.787Z,102431.11
2019-01-04T13:54:14.114Z,102427.63
2019-01-04T13:56:43.798Z,102442.41
2019-01-04T13:59:13.112Z,102429.80
2019-01-04T14:01:42.582Z,102423.70
2019-01-04T14:04:12.111Z,102433.26
2019-01-04T14:06:41.413Z,102423.23
2019-01-04T14:09:10.823Z,102419.33
2019-01-04T14:11:40.188Z,102418.01
2019-01-04T14:14:12.800Z,102406.70
2019-01-04T14:16:46.553Z,102390.19
2019-01-04T14:19:17.383Z,102398.50
2019-01-04T14:21:46.720Z,102399.86
2019-01-04T14:24:22.125Z,102395.95
2019-01-04T14:26:52.480Z,102395.07
2019-01-04T14:29:21.900Z,102384.67
2019-01-04T14:31:58.725Z,102371.61
2019-01-04T14:34:31.871Z,102357.28
2019-01-04T14:37:05.540Z,102360.77
2019-01-04T14:39:36.516Z,102363.80
2019-01-04T14:42:06.527Z,102355.56
2019-01-04T14:44:43.441Z,102352.11
2019-01-04T14:47:13.520Z,102339.08
2019-01-04T14:49:43.110Z,102333.42
2019-01-04T14:52:12.780Z,102342.11
2019-01-04T14:54:42.412Z,102349.52
2019-01-04T14:57:11.938Z,102337.37
2019-01-04T14:59:41.690Z,102351.24
2019-01-04T15:02:11.375Z,102360.78
2019-01-04T15:04:40.759Z,102370.38
2019-01-04T15:07:10.981Z,102370.36
2019-01-04T15:10:27.944Z,102368.20
2019-01-04T15:13:28.970Z,102355.14
2019-01-04T15:15:58.774Z,102347.77
2019-01-04T15:18:28.159Z,102346.05
2019-01-04T15:21:01.977Z,102327.81
2019-01-04T15:23:31.690Z,102314.34
2019-01-04T15:26:02.225Z,102319.14
2019-01-04T15:28:31.608Z,102314.78
2019-01-04T15:31:01.215Z,102333.02
2019-01-04T15:33:30.569Z,102333.91
2019-01-04T15:36:00.028Z,102329.97
2019-01-04T15:38:29.631Z,102335.21
2019-01-04T15:40:58.970Z,102347.80
2019-01-04T15:43:28.373Z,102349.11
2019-01-04T15:45:58.025Z,102357.78
2019-01-04T15:48:27.499Z,102353.42
2019-01-04T15:50:56.948Z,102346.04
2019-01-04T15:53:26.853Z,102349.95
2019-01-04T15:55:56.229Z,102347.34
2019-01-04T15:58:25.642Z,102340.84
2019-01-04T16:00:55.394Z,102341.70
2019-01-04T16:03:24.904Z,102351.25
2019-01-04T16:05:54.648Z,102342.57
2019-01-04T16:08:24.463Z,102339.95
2019-01-04T16:10:54.001Z,102338.66
2019-01-04T16:13:23.515Z,102341.27
2019-01-04T16:15:52.957Z,102336.94
2019-01-04T16:18:22.430Z,102347.36
2019-01-04T16:20:52.813Z,102346.48
2019-01-04T16:23:23.219Z,102353.00
2019-01-04T16:25:52.765Z,102350.83
2019-01-04T16:28:22.180Z,102347.79
2019-01-04T16:30:51.684Z,102347.80
2019-01-04T16:33:21.171Z,102349.96
2019-01-04T16:35:50.580Z,102360.81
2019-01-04T16:38:21.083Z,102372.97
2019-01-04T16:40:51.451Z,102367.76
2019-01-04T16:43:21.598Z,102364.30
2019-01-04T16:45:51.093Z,102369.51
2019-01-04T16:48:23.312Z,102364.30
2019-01-04T16:50:52.772Z,102371.69
2019-01-04T16:53:22.194Z,102372.13
2019-01-04T16:55:51.700Z,102374.70
2019-01-04T16:58:21.245Z,102371.66
2019-01-04T17:00:51.320Z,102363.42
2019-01-04T17:03:21.401Z,102368.64
2019-01-04T17:05:50.978Z,102355.58
2019-01-04T17:08:20.955Z,102354.73
2019-01-04T17:10:50.585Z,102354.30
2019-01-04T17:13:20.110Z,102361.69
2019-01-04T17:15:50.680Z,102357.35
2019-01-04T17:18:20.613Z,102351.69
2019-01-04T17:20:50.580Z,102356.03
2019-01-04T17:23:20.441Z,102351.69
2019-01-04T17:25:50.915Z,102344.31
2019-01-04T17:30:45.171Z,102337.38
2019-01-04T17:33:14.868Z,102346.48
2019-01-04T17:35:44.754Z,102344.31
2019-01-04T17:38:14.651Z,102345.18
2019-01-04T17:40:45.276Z,102356.91
2019-01-04T17:43:17.611Z,102339.53
2019-01-04T17:45:47.755Z,102335.19
2019-01-04T17:48:19.202Z,102334.77
2019-01-04T17:50:49.034Z,102332.17
2019-01-04T17:53:19.464Z,102334.33
2019-01-04T17:55:48.982Z,102329.56
2019-01-04T17:58:18.886Z,102326.52
2019-01-04T18:00:49.007Z,102329.98
2019-01-04T18:03:18.747Z,102334.75
2019-01-04T18:05:48.523Z,102330.84
2019-01-04T18:08:20.995Z,102328.25
2019-01-04T18:10:50.918Z,102329.11
2019-01-04T18:13:20.933Z,102320.89
2019-01-04T18:15:50.912Z,102320.00
2019-01-04T18:18:20.695Z,102326.53
2019-01-04T18:20:50.921Z,102315.22
2019-01-04T18:23:20.924Z,102320.02
2019-01-04T18:25:54.489Z,102314.81
2019-01-04T18:28:25.517Z,102313.50
2019-01-04T18:30:55.404Z,102304.81
2019-01-04T18:33:25.149Z,102310.89
2019-01-04T18:35:55.317Z,102305.70
2019-01-04T18:38:25.097Z,102306.98
2019-01-04T18:40:54.969Z,102311.33
2019-01-04T18:43:25.102Z,102306.97
2019-01-04T18:45:54.818Z,102310.03
2019-01-04T18:48:24.631Z,102312.19
2019-01-04T18:50:55.081Z,102315.67
2019-01-04T18:53:26.751Z,102313.06
2019-01-04T18:55:56.544Z,102307.42
2019-01-04T18:58:27.339Z,102313.94
2019-01-04T19:00:57.580Z,102310.47
2019-01-04T19:03:27.387Z,102306.98
2019-01-04T19:05:57.457Z,102294.39
2019-01-04T19:08:27.225Z,102291.80
2019-01-04T19:10:57.310Z,102290.91
2019-01-04T19:13:27.647Z,102278.34
2019-01-04T19:15:57.564Z,102287.44
2019-01-04T19:18:27.446Z,102286.98
2019-01-04T19:21:00.400Z,102283.53
2019-01-04T19:23:30.546Z,102287.89
2019-01-04T19:26:00.202Z,102285.27
2019-01-04T19:28:30.351Z,102279.63
2019-01-04T19:31:01.273Z,102274.44
2019-01-04T19:33:33.342Z,102285.28
2019-01-04T19:36:08.139Z,102287.02
2019-01-04T19:38:38.081Z,102281.81
2019-01-04T19:41:13.668Z,102274.45
2019-01-04T19:43:45.416Z,102274.45
2019-01-04T19:46:15.893Z,102287.45
2019-01-04T19:48:46.003Z,102280.95
2019-01-04T19:51:16.106Z,102280.92
2019-01-04T19:53:46.595Z,102283.53
2019-01-04T19:56:16.685Z,102288.77
2019-01-04T19:58:47.416Z,102283.09
2019-01-04T20:01:22.597Z,102287.87
2019-01-04T20:03:53.368Z,102286.14
2019-01-04T20:07:31.112Z,102281.82
2019-01-04T20:11:05.673Z,102285.27
2019-01-04T20:15:08.511Z,102270.09
2019-01-04T20:18:06.504Z,102271.84
2019-01-04T20:20:55.487Z,102270.53
2019-01-04T20:23:44.654Z,102278.35
2019-01-04T20:26:44.189Z,102275.29
2019-01-04T20:29:49.671Z,102269.66
2019-01-04T20:32:38.286Z,102270.09
2019-01-04T20:35:26.998Z,102273.57
2019-01-04T20:38:14.132Z,102277.47
2019-01-04T20:41:08.861Z,102285.73
2019-01-04T20:43:56.254Z,102283.09
2019-01-04T20:46:43.337Z,102288.33
2019-01-04T20:49:31.473Z,102293.95
2019-01-04T20:52:19.051Z,102296.58
2019-01-04T20:55:08.227Z,102290.05
2019-01-04T20:57:53.961Z,102295.27
2019-01-04T21:00:55.303Z,102298.73
2019-01-04T21:03:42.808Z,102300.02
2019-01-04T21:06:47.442Z,102297.87
2019-01-04T21:09:42.054Z,102297.42
2019-01-04T21:12:30.160Z,102292.64
2019-01-04T21:15:24.540Z,102294.79
2019-01-04T21:18:22.523Z,102300.02
2019-01-04T21:21:06.216Z,102305.22
2019-01-04T21:24:11.173Z,102298.71
2019-01-04T21:27:08.972Z,102303.50
2019-01-04T21:30:08.673Z,102296.12
2019-01-04T21:33:06.489Z,102297.41
2019-01-04T21:35:54.897Z,102293.94
2019-01-04T21:38:41.856Z,102304.34
2019-01-04T21:41:30.779Z,102301.75
2019-01-04T21:44:11.565Z,102299.16
2019-01-04T21:46:59.127Z,102297.83
2019-01-04T21:49:53.581Z,102296.52
2019-01-04T21:52:58.053Z,102299.15
2019-01-04T21:56:04.613Z,102296.08
2019-01-04T21:58:52.240Z,102294.37
2019-01-04T22:01:39.594Z,102300.05
2019-01-04T22:04:38.565Z,102302.20
2019-01-04T22:07:29.883Z,102293.95
2019-01-04T22:10:17.891Z,102291.34
2019-01-04T22:13:15.823Z,102287.00
2019-01-04T22:16:19.839Z,102283.95
2019-01-04T22:19:07.012Z,102290.05
2019-01-04T22:22:08.252Z,102280.05
2019-01-04T22:24:59.600Z,102282.67
2019-01-04T22:27:50.978Z,102283.97
2019-01-04T22:30:54.467Z,102277.43
2019-01-04T22:33:57.891Z,102278.30
2019-01-04T22:36:45.656Z,102271.80
2019-01-04T22:39:40.213Z,102272.64
2019-01-04T22:42:26.956Z,102272.25
2019-01-04T22:45:16.632Z,102265.30
2019-01-04T22:48:03.649Z,102273.53
2019-01-04T22:51:07.392Z,102264.00
2019-01-04T22:53:54.287Z,102265.74
2019-01-04T22:56:43.182Z,102257.93
2019-01-04T22:59:43.637Z,102258.80
2019-01-04T23:02:34.921Z,102254.00
2019-01-04T23:05:22.691Z,102258.80
2019-01-04T23:08:10.121Z,102258.78
2019-01-04T23:11:13.567Z,102253.59
2019-01-04T23:14:08.243Z,102255.30
2019-01-04T23:16:55.247Z,102253.13
2019-01-04T23:19:42.558Z,102248.80
2019-01-04T23:22:45.615Z,102257.91
2019-01-04T23:25:50.701Z,102266.13
2019-01-04T23:28:37.695Z,102255.72
2019-01-04T23:31:32.582Z,102253.55
2019-01-04T23:34:32.984Z,102248.36
2019-01-04T23:37:23.897Z,102247.94
2019-01-04T23:40:18.311Z,102245.28
2019-01-04T23:43:19.537Z,102237.48
2019-01-04T23:46:23.444Z,102236.18
2019-01-04T23:49:10.922Z,102234.45
2019-01-04T23:52:17.313Z,102242.71
2019-01-04T23:55:09.201Z,102236.20
2019-01-04T23:58:15.764Z,102238.83
